sensor_id;sensor_type;location;lat;lon;timestamp;temperature;humidity
33093;DHT22;19456;46.104;12.908;2023-09-08T00:00:19;19.30;99.90
33093;DHT22;19456;46.104;12.908;2023-09-08T00:02:45;19.30;99.90
33093;DHT22;19456;46.104;12.908;2023-09-08T00:05:10;19.30;99.90
33093;DHT22;19456;46.104;12.908;2023-09-08T00:07:36;19.20;99.90
33093;DHT22;19456;46.104;12.908;2023-09-08T00:10:01;19.10;99.90
33093;DHT22;19456;46.104;12.908;2023-09-08T00:12:27;19.00;99.90
33093;DHT22;19456;46.104;12.908;2023-09-08T00:14:52;18.90;99.90
33093;DHT22;19456;46.104;12.908;2023-09-08T00:17:18;18.90;99.90
33093;DHT22;19456;46.104;12.908;2023-09-08T00:19:43;18.90;99.90
33093;DHT22;19456;46.104;12.908;2023-09-08T00:22:09;19.00;99.90
33093;DHT22;19456;46.104;12.908;2023-09-08T00:24:38;19.00;99.90
33093;DHT22;19456;46.104;12.908;2023-09-08T00:27:03;19.20;99.90
33093;DHT22;19456;46.104;12.908;2023-09-08T00:29:29;19.40;99.90
33093;DHT22;19456;46.104;12.908;2023-09-08T00:31:54;19.30;99.90
33093;DHT22;19456;46.104;12.908;2023-09-08T00:34:20;19.50;99.90
33093;DHT22;19456;46.104;12.908;2023-09-08T00:36:46;19.60;99.90
33093;DHT22;19456;46.104;12.908;2023-09-08T00:39:11;19.70;99.90
33093;DHT22;19456;46.104;12.908;2023-09-08T00:41:37;19.70;99.90
33093;DHT22;19456;46.104;12.908;2023-09-08T00:44:02;19.80;99.90
33093;DHT22;19456;46.104;12.908;2023-09-08T00:46:28;19.70;99.90
33093;DHT22;19456;46.104;12.908;2023-09-08T00:48:55;19.50;99.90
33093;DHT22;19456;46.104;12.908;2023-09-08T00:51:21;19.50;99.90
33093;DHT22;19456;46.104;12.908;2023-09-08T00:53:47;19.70;99.90
33093;DHT22;19456;46.104;12.908;2023-09-08T00:56:13;19.80;99.90
33093;DHT22;19456;46.104;12.908;2023-09-08T00:58:38;19.70;99.90
33093;DHT22;19456;46.104;12.908;2023-09-08T01:01:04;19.80;99.90
33093;DHT22;19456;46.104;12.908;2023-09-08T01:03:32;19.60;99.90
33093;DHT22;19456;46.104;12.908;2023-09-08T01:05:58;19.40;99.90
33093;DHT22;19456;46.104;12.908;2023-09-08T01:08:23;19.20;99.90
33093;DHT22;19456;46.104;12.908;2023-09-08T01:10:50;18.70;99.90
33093;DHT22;19456;46.104;12.908;2023-09-08T01:13:17;18.20;99.90
33093;DHT22;19456;46.104;12.908;2023-09-08T01:15:42;18.00;99.90
33093;DHT22;19456;46.104;12.908;2023-09-08T01:18:08;18.20;99.90
33093;DHT22;19456;46.104;12.908;2023-09-08T01:20:35;18.40;99.90
33093;DHT22;19456;46.104;12.908;2023-09-08T01:25:34;18.60;99.90
33093;DHT22;19456;46.104;12.908;2023-09-08T01:28:01;18.60;99.90
33093;DHT22;19456;46.104;12.908;2023-09-08T01:30:28;18.70;99.90
33093;DHT22;19456;46.104;12.908;2023-09-08T01:32:54;18.70;99.90
33093;DHT22;19456;46.104;12.908;2023-09-08T01:35:20;18.50;99.90
33093;DHT22;19456;46.104;12.908;2023-09-08T01:37:46;18.30;99.90
33093;DHT22;19456;46.104;12.908;2023-09-08T01:40:12;18.20;99.90
33093;DHT22;19456;46.104;12.908;2023-09-08T01:42:38;18.30;99.90
33093;DHT22;19456;46.104;12.908;2023-09-08T01:45:04;18.20;99.90
33093;DHT22;19456;46.104;12.908;2023-09-08T01:47:30;18.30;99.90
33093;DHT22;19456;46.104;12.908;2023-09-08T01:49:55;18.30;99.90
33093;DHT22;19456;46.104;12.908;2023-09-08T01:52:21;18.30;99.90
33093;DHT22;19456;46.104;12.908;2023-09-08T01:54:46;18.20;99.90
33093;DHT22;19456;46.104;12.908;2023-09-08T01:57:12;18.20;99.90
33093;DHT22;19456;46.104;12.908;2023-09-08T01:59:38;18.30;99.90
33093;DHT22;19456;46.104;12.908;2023-09-08T02:02:04;18.60;99.90
33093;DHT22;19456;46.104;12.908;2023-09-08T02:04:29;18.80;99.90
33093;DHT22;19456;46.104;12.908;2023-09-08T02:06:55;19.00;99.90
33093;DHT22;19456;46.104;12.908;2023-09-08T02:09:20;19.00;99.90
33093;DHT22;19456;46.104;12.908;2023-09-08T02:11:46;18.70;99.90
33093;DHT22;19456;46.104;12.908;2023-09-08T02:14:11;18.60;99.90
33093;DHT22;19456;46.104;12.908;2023-09-08T02:16:37;18.80;99.90
33093;DHT22;19456;46.104;12.908;2023-09-08T02:19:03;18.50;99.90
33093;DHT22;19456;46.104;12.908;2023-09-08T02:21:28;18.20;99.90
33093;DHT22;19456;46.104;12.908;2023-09-08T02:23:54;17.80;99.90
33093;DHT22;19456;46.104;12.908;2023-09-08T02:26:19;17.60;99.90
33093;DHT22;19456;46.104;12.908;2023-09-08T02:28:45;17.60;99.90
33093;DHT22;19456;46.104;12.908;2023-09-08T02:31:10;17.60;99.90
33093;DHT22;19456;46.104;12.908;2023-09-08T02:33:36;17.60;99.90
33093;DHT22;19456;46.104;12.908;2023-09-08T02:36:05;17.70;99.90
33093;DHT22;19456;46.104;12.908;2023-09-08T02:38:31;17.80;99.90
33093;DHT22;19456;46.104;12.908;2023-09-08T02:40:57;17.90;99.90
33093;DHT22;19456;46.104;12.908;2023-09-08T02:43:22;17.90;99.90
33093;DHT22;19456;46.104;12.908;2023-09-08T02:45:49;18.00;99.90
33093;DHT22;19456;46.104;12.908;2023-09-08T02:48:15;17.70;99.90
33093;DHT22;19456;46.104;12.908;2023-09-08T02:50:41;17.70;99.90
33093;DHT22;19456;46.104;12.908;2023-09-08T02:53:07;17.80;99.90
33093;DHT22;19456;46.104;12.908;2023-09-08T02:55:33;17.70;99.90
33093;DHT22;19456;46.104;12.908;2023-09-08T02:57:58;17.50;99.90
33093;DHT22;19456;46.104;12.908;2023-09-08T03:00:24;17.30;99.90
33093;DHT22;19456;46.104;12.908;2023-09-08T03:02:50;17.20;99.90
33093;DHT22;19456;46.104;12.908;2023-09-08T03:05:15;17.20;99.90
33093;DHT22;19456;46.104;12.908;2023-09-08T03:07:41;17.30;99.90
33093;DHT22;19456;46.104;12.908;2023-09-08T03:10:07;17.40;99.90
33093;DHT22;19456;46.104;12.908;2023-09-08T03:12:32;17.40;99.90
33093;DHT22;19456;46.104;12.908;2023-09-08T03:14:58;17.40;99.90
33093;DHT22;19456;46.104;12.908;2023-09-08T03:17:23;17.40;99.90
33093;DHT22;19456;46.104;12.908;2023-09-08T03:19:49;17.60;99.90
33093;DHT22;19456;46.104;12.908;2023-09-08T03:22:14;17.60;99.90
33093;DHT22;19456;46.104;12.908;2023-09-08T03:24:40;17.40;99.90
33093;DHT22;19456;46.104;12.908;2023-09-08T03:27:06;17.40;99.90
33093;DHT22;19456;46.104;12.908;2023-09-08T03:29:31;17.60;99.90
33093;DHT22;19456;46.104;12.908;2023-09-08T03:31:57;17.60;99.90
33093;DHT22;19456;46.104;12.908;2023-09-08T03:34:22;17.50;99.90
33093;DHT22;19456;46.104;12.908;2023-09-08T03:36:48;17.40;99.90
33093;DHT22;19456;46.104;12.908;2023-09-08T03:39:14;17.40;99.90
33093;DHT22;19456;46.104;12.908;2023-09-08T03:41:40;17.40;99.90
33093;DHT22;19456;46.104;12.908;2023-09-08T03:44:06;17.20;99.90
33093;DHT22;19456;46.104;12.908;2023-09-08T03:46:31;17.20;99.90
33093;DHT22;19456;46.104;12.908;2023-09-08T03:48:57;17.40;99.90
33093;DHT22;19456;46.104;12.908;2023-09-08T03:51:26;17.30;99.90
33093;DHT22;19456;46.104;12.908;2023-09-08T03:53:53;17.00;99.90
33093;DHT22;19456;46.104;12.908;2023-09-08T03:56:18;17.00;99.90
33093;DHT22;19456;46.104;12.908;2023-09-08T03:58:45;17.00;99.90
33093;DHT22;19456;46.104;12.908;2023-09-08T04:01:11;17.10;99.90
33093;DHT22;19456;46.104;12.908;2023-09-08T04:03:37;17.20;99.90
33093;DHT22;19456;46.104;12.908;2023-09-08T04:06:02;17.30;99.90
33093;DHT22;19456;46.104;12.908;2023-09-08T04:08:28;17.40;99.90
33093;DHT22;19456;46.104;12.908;2023-09-08T04:10:53;17.50;99.90
33093;DHT22;19456;46.104;12.908;2023-09-08T04:13:19;17.50;99.90
33093;DHT22;19456;46.104;12.908;2023-09-08T04:15:44;17.60;99.90
33093;DHT22;19456;46.104;12.908;2023-09-08T04:18:10;17.80;99.90
33093;DHT22;19456;46.104;12.908;2023-09-08T04:20:35;17.90;99.90
33093;DHT22;19456;46.104;12.908;2023-09-08T04:23:01;17.90;99.90
33093;DHT22;19456;46.104;12.908;2023-09-08T04:25:26;18.10;99.90
33093;DHT22;19456;46.104;12.908;2023-09-08T04:27:52;18.30;99.90
33093;DHT22;19456;46.104;12.908;2023-09-08T04:30:17;18.50;99.90
33093;DHT22;19456;46.104;12.908;2023-09-08T04:32:43;18.30;99.90
33093;DHT22;19456;46.104;12.908;2023-09-08T04:35:09;17.90;99.90
33093;DHT22;19456;46.104;12.908;2023-09-08T04:37:35;17.70;99.90
33093;DHT22;19456;46.104;12.908;2023-09-08T04:40:02;17.90;99.90
33093;DHT22;19456;46.104;12.908;2023-09-08T04:42:28;18.00;99.90
33093;DHT22;19456;46.104;12.908;2023-09-08T04:44:54;18.10;99.90
33093;DHT22;19456;46.104;12.908;2023-09-08T04:47:20;18.00;99.90
33093;DHT22;19456;46.104;12.908;2023-09-08T04:49:45;17.70;99.90
33093;DHT22;19456;46.104;12.908;2023-09-08T04:52:11;17.60;99.90
33093;DHT22;19456;46.104;12.908;2023-09-08T04:54:37;17.30;99.90
33093;DHT22;19456;46.104;12.908;2023-09-08T04:57:02;17.20;99.90
33093;DHT22;19456;46.104;12.908;2023-09-08T04:59:28;17.00;99.90
33093;DHT22;19456;46.104;12.908;2023-09-08T05:01:53;16.80;99.90
33093;DHT22;19456;46.104;12.908;2023-09-08T05:04:19;16.90;99.90
33093;DHT22;19456;46.104;12.908;2023-09-08T05:06:45;17.00;99.90
33093;DHT22;19456;46.104;12.908;2023-09-08T05:09:10;17.10;99.90
33093;DHT22;19456;46.104;12.908;2023-09-08T05:11:36;17.20;99.90
33093;DHT22;19456;46.104;12.908;2023-09-08T05:14:02;17.40;99.90
33093;DHT22;19456;46.104;12.908;2023-09-08T05:16:27;17.50;99.90
33093;DHT22;19456;46.104;12.908;2023-09-08T05:19:11;17.50;99.90
33093;DHT22;19456;46.104;12.908;2023-09-08T05:21:37;17.50;99.90
33093;DHT22;19456;46.104;12.908;2023-09-08T05:24:03;17.50;99.90
33093;DHT22;19456;46.104;12.908;2023-09-08T05:26:28;17.60;99.90
33093;DHT22;19456;46.104;12.908;2023-09-08T05:28:54;17.80;99.90
33093;DHT22;19456;46.104;12.908;2023-09-08T05:31:20;18.10;99.90
33093;DHT22;19456;46.104;12.908;2023-09-08T05:33:47;18.10;99.90
33093;DHT22;19456;46.104;12.908;2023-09-08T05:36:12;18.10;99.90
33093;DHT22;19456;46.104;12.908;2023-09-08T05:38:39;18.10;99.90
33093;DHT22;19456;46.104;12.908;2023-09-08T05:41:05;18.20;99.90
33093;DHT22;19456;46.104;12.908;2023-09-08T05:43:30;18.20;99.90
33093;DHT22;19456;46.104;12.908;2023-09-08T05:45:56;18.20;99.90
33093;DHT22;19456;46.104;12.908;2023-09-08T05:48:22;18.30;99.90
33093;DHT22;19456;46.104;12.908;2023-09-08T05:50:47;18.30;99.90
33093;DHT22;19456;46.104;12.908;2023-09-08T05:53:13;18.50;99.90
33093;DHT22;19456;46.104;12.908;2023-09-08T05:55:38;18.70;99.90
33093;DHT22;19456;46.104;12.908;2023-09-08T06:01:04;19.00;99.90
33093;DHT22;19456;46.104;12.908;2023-09-08T06:03:30;19.20;99.90
33093;DHT22;19456;46.104;12.908;2023-09-08T06:05:58;19.30;99.90
33093;DHT22;19456;46.104;12.908;2023-09-08T06:08:24;19.40;99.90
33093;DHT22;19456;46.104;12.908;2023-09-08T06:10:50;19.60;99.90
33093;DHT22;19456;46.104;12.908;2023-09-08T06:13:15;19.70;99.90
33093;DHT22;19456;46.104;12.908;2023-09-08T06:15:41;19.80;99.90
33093;DHT22;19456;46.104;12.908;2023-09-08T06:18:09;19.80;99.90
33093;DHT22;19456;46.104;12.908;2023-09-08T06:24:10;20.00;99.90
33093;DHT22;19456;46.104;12.908;2023-09-08T06:26:36;20.10;99.90
33093;DHT22;19456;46.104;12.908;2023-09-08T06:29:18;20.20;99.90
33093;DHT22;19456;46.104;12.908;2023-09-08T06:35:09;20.50;99.90
33093;DHT22;19456;46.104;12.908;2023-09-08T06:37:38;20.60;99.90
33093;DHT22;19456;46.104;12.908;2023-09-08T06:40:04;20.70;99.90
33093;DHT22;19456;46.104;12.908;2023-09-08T06:42:30;20.90;99.90
33093;DHT22;19456;46.104;12.908;2023-09-08T06:44:56;21.10;99.90
33093;DHT22;19456;46.104;12.908;2023-09-08T06:47:22;21.20;99.90
33093;DHT22;19456;46.104;12.908;2023-09-08T06:49:47;21.30;99.90
33093;DHT22;19456;46.104;12.908;2023-09-08T06:52:13;21.50;99.90
33093;DHT22;19456;46.104;12.908;2023-09-08T06:54:38;21.60;99.90
33093;DHT22;19456;46.104;12.908;2023-09-08T06:57:06;21.70;99.90
33093;DHT22;19456;46.104;12.908;2023-09-08T11:07:31;30.50;79.70
33093;DHT22;19456;46.104;12.908;2023-09-08T11:09:58;30.90;78.40
33093;DHT22;19456;46.104;12.908;2023-09-08T11:12:26;31.20;77.90
33093;DHT22;19456;46.104;12.908;2023-09-08T11:14:52;31.50;76.50
33093;DHT22;19456;46.104;12.908;2023-09-08T11:17:17;31.80;75.30
33093;DHT22;19456;46.104;12.908;2023-09-08T11:19:46;32.40;73.10
33093;DHT22;19456;46.104;12.908;2023-09-08T11:22:15;32.80;71.10
33093;DHT22;19456;46.104;12.908;2023-09-08T11:24:41;33.20;67.90
33093;DHT22;19456;46.104;12.908;2023-09-08T11:27:07;33.50;67.90
33093;DHT22;19456;46.104;12.908;2023-09-08T11:29:33;33.80;66.30
33093;DHT22;19456;46.104;12.908;2023-09-08T11:31:59;34.10;62.80
33093;DHT22;19456;46.104;12.908;2023-09-08T11:34:25;34.50;61.50
33093;DHT22;19456;46.104;12.908;2023-09-08T11:36:51;34.60;60.00
33093;DHT22;19456;46.104;12.908;2023-09-08T11:39:18;35.10;60.80
33093;DHT22;19456;46.104;12.908;2023-09-08T11:41:43;35.30;59.20
33093;DHT22;19456;46.104;12.908;2023-09-08T11:44:09;35.40;59.10
33093;DHT22;19456;46.104;12.908;2023-09-08T11:46:35;35.70;58.20
33093;DHT22;19456;46.104;12.908;2023-09-08T11:49:01;36.00;56.10
33093;DHT22;19456;46.104;12.908;2023-09-08T11:51:30;35.50;55.20
33093;DHT22;19456;46.104;12.908;2023-09-08T11:53:55;35.50;54.30
33093;DHT22;19456;46.104;12.908;2023-09-08T11:56:21;35.50;54.60
33093;DHT22;19456;46.104;12.908;2023-09-08T11:58:48;35.40;55.30
33093;DHT22;19456;46.104;12.908;2023-09-08T12:01:14;35.70;55.20
33093;DHT22;19456;46.104;12.908;2023-09-08T12:03:54;36.10;54.00
33093;DHT22;19456;46.104;12.908;2023-09-08T12:06:23;36.50;53.50
33093;DHT22;19456;46.104;12.908;2023-09-08T12:08:50;36.90;52.50
33093;DHT22;19456;46.104;12.908;2023-09-08T12:11:17;36.90;52.20
33093;DHT22;19456;46.104;12.908;2023-09-08T12:13:43;37.10;51.90
33093;DHT22;19456;46.104;12.908;2023-09-08T12:16:20;36.60;51.50
33093;DHT22;19456;46.104;12.908;2023-09-08T12:18:48;37.10;51.10
33093;DHT22;19456;46.104;12.908;2023-09-08T12:21:15;37.10;50.00
33093;DHT22;19456;46.104;12.908;2023-09-08T12:23:48;37.00;49.30
33093;DHT22;19456;46.104;12.908;2023-09-08T12:26:15;37.10;49.60
33093;DHT22;19456;46.104;12.908;2023-09-08T12:28:41;37.80;49.30
33093;DHT22;19456;46.104;12.908;2023-09-08T12:31:08;38.00;51.70
33093;DHT22;19456;46.104;12.908;2023-09-08T12:33:34;38.10;51.40
33093;DHT22;19456;46.104;12.908;2023-09-08T12:36:06;37.70;51.70
33093;DHT22;19456;46.104;12.908;2023-09-08T12:38:35;37.60;52.10
33093;DHT22;19456;46.104;12.908;2023-09-08T12:41:02;37.30;52.30
33093;DHT22;19456;46.104;12.908;2023-09-08T12:43:29;37.60;51.10
33093;DHT22;19456;46.104;12.908;2023-09-08T12:45:55;37.10;49.50
33093;DHT22;19456;46.104;12.908;2023-09-08T12:48:21;36.90;51.50
33093;DHT22;19456;46.104;12.908;2023-09-08T12:50:47;37.40;51.00
33093;DHT22;19456;46.104;12.908;2023-09-08T12:53:14;37.10;50.60
33093;DHT22;19456;46.104;12.908;2023-09-08T12:55:39;35.70;51.20
33093;DHT22;19456;46.104;12.908;2023-09-08T12:58:05;35.80;52.10
33093;DHT22;19456;46.104;12.908;2023-09-08T13:00:31;36.60;53.80
33093;DHT22;19456;46.104;12.908;2023-09-08T13:02:56;37.00;53.20
33093;DHT22;19456;46.104;12.908;2023-09-08T13:05:22;37.10;52.60
33093;DHT22;19456;46.104;12.908;2023-09-08T13:07:49;36.50;53.40
33093;DHT22;19456;46.104;12.908;2023-09-08T13:10:14;36.50;52.90
33093;DHT22;19456;46.104;12.908;2023-09-08T13:12:41;37.40;51.70
33093;DHT22;19456;46.104;12.908;2023-09-08T13:15:07;38.00;50.90
33093;DHT22;19456;46.104;12.908;2023-09-08T13:17:34;38.50;50.60
33093;DHT22;19456;46.104;12.908;2023-09-08T13:19:59;39.30;50.60
33093;DHT22;19456;46.104;12.908;2023-09-08T13:22:26;40.00;49.40
33093;DHT22;19456;46.104;12.908;2023-09-08T13:24:52;39.40;49.50
33093;DHT22;19456;46.104;12.908;2023-09-08T13:27:18;39.50;49.20
33093;DHT22;19456;46.104;12.908;2023-09-08T13:29:44;38.60;50.70
33093;DHT22;19456;46.104;12.908;2023-09-08T13:32:10;39.70;49.40
33093;DHT22;19456;46.104;12.908;2023-09-08T13:34:35;40.00;48.50
33093;DHT22;19456;46.104;12.908;2023-09-08T13:37:03;39.70;48.90
33093;DHT22;19456;46.104;12.908;2023-09-08T13:39:30;40.10;48.80
33093;DHT22;19456;46.104;12.908;2023-09-08T13:41:58;38.50;49.10
33093;DHT22;19456;46.104;12.908;2023-09-08T13:44:24;38.60;50.50
33093;DHT22;19456;46.104;12.908;2023-09-08T13:46:51;39.20;49.60
33093;DHT22;19456;46.104;12.908;2023-09-08T13:49:17;40.10;48.90
33093;DHT22;19456;46.104;12.908;2023-09-08T13:51:44;40.10;48.10
33093;DHT22;19456;46.104;12.908;2023-09-08T13:54:10;39.70;47.70
33093;DHT22;19456;46.104;12.908;2023-09-08T13:56:40;38.20;49.40
33093;DHT22;19456;46.104;12.908;2023-09-08T13:59:06;38.40;50.30
33093;DHT22;19456;46.104;12.908;2023-09-08T14:01:35;39.40;48.70
33093;DHT22;19456;46.104;12.908;2023-09-08T14:04:02;40.20;48.00
33093;DHT22;19456;46.104;12.908;2023-09-08T14:06:28;40.70;48.10
33093;DHT22;19456;46.104;12.908;2023-09-08T14:08:54;41.00;47.80
33093;DHT22;19456;46.104;12.908;2023-09-08T14:11:23;41.50;47.40
33093;DHT22;19456;46.104;12.908;2023-09-08T14:13:49;41.50;46.50
33093;DHT22;19456;46.104;12.908;2023-09-08T14:16:17;41.90;46.20
33093;DHT22;19456;46.104;12.908;2023-09-08T14:18:43;41.50;46.40
33093;DHT22;19456;46.104;12.908;2023-09-08T14:21:08;41.50;47.20
33093;DHT22;19456;46.104;12.908;2023-09-08T14:23:39;42.00;45.90
33093;DHT22;19456;46.104;12.908;2023-09-08T14:26:06;42.60;45.50
33093;DHT22;19456;46.104;12.908;2023-09-08T14:28:33;42.20;45.80
33093;DHT22;19456;46.104;12.908;2023-09-08T14:30:59;41.70;45.70
33093;DHT22;19456;46.104;12.908;2023-09-08T14:33:25;41.40;45.70
33093;DHT22;19456;46.104;12.908;2023-09-08T14:35:51;40.80;46.70
33093;DHT22;19456;46.104;12.908;2023-09-08T14:38:17;40.00;47.00
33093;DHT22;19456;46.104;12.908;2023-09-08T14:40:44;39.30;48.20
33093;DHT22;19456;46.104;12.908;2023-09-08T14:43:10;39.80;47.90
33093;DHT22;19456;46.104;12.908;2023-09-08T14:45:36;40.70;47.50
33093;DHT22;19456;46.104;12.908;2023-09-08T14:48:02;41.30;46.60
33093;DHT22;19456;46.104;12.908;2023-09-08T14:50:28;41.50;46.00
33093;DHT22;19456;46.104;12.908;2023-09-08T14:52:54;41.20;46.50
33093;DHT22;19456;46.104;12.908;2023-09-08T14:55:20;41.00;46.00
33093;DHT22;19456;46.104;12.908;2023-09-08T14:57:45;41.40;46.40
33093;DHT22;19456;46.104;12.908;2023-09-08T15:00:11;41.40;45.60
33093;DHT22;19456;46.104;12.908;2023-09-08T15:02:37;40.80;46.00
33093;DHT22;19456;46.104;12.908;2023-09-08T15:05:03;41.30;45.70
33093;DHT22;19456;46.104;12.908;2023-09-08T15:07:30;41.30;45.50
33093;DHT22;19456;46.104;12.908;2023-09-08T15:09:56;41.50;44.40
33093;DHT22;19456;46.104;12.908;2023-09-08T15:12:26;41.70;44.30
33093;DHT22;19456;46.104;12.908;2023-09-08T15:14:52;41.80;43.90
33093;DHT22;19456;46.104;12.908;2023-09-08T15:17:18;41.50;43.80
33093;DHT22;19456;46.104;12.908;2023-09-08T15:19:44;41.00;44.60
33093;DHT22;19456;46.104;12.908;2023-09-08T15:22:10;40.60;44.70
33093;DHT22;19456;46.104;12.908;2023-09-08T15:24:38;40.40;44.70
33093;DHT22;19456;46.104;12.908;2023-09-08T15:27:04;40.30;44.80
33093;DHT22;19456;46.104;12.908;2023-09-08T15:29:30;40.30;44.90
33093;DHT22;19456;46.104;12.908;2023-09-08T15:31:55;40.50;44.70
33093;DHT22;19456;46.104;12.908;2023-09-08T15:34:21;40.30;44.50
33093;DHT22;19456;46.104;12.908;2023-09-08T15:36:47;40.80;44.30
33093;DHT22;19456;46.104;12.908;2023-09-08T15:39:14;40.90;43.60
33093;DHT22;19456;46.104;12.908;2023-09-08T15:41:40;40.50;44.00
33093;DHT22;19456;46.104;12.908;2023-09-08T15:44:06;40.20;44.60
33093;DHT22;19456;46.104;12.908;2023-09-08T15:46:32;39.90;44.90
33093;DHT22;19456;46.104;12.908;2023-09-08T15:48:58;39.40;45.40
33093;DHT22;19456;46.104;12.908;2023-09-08T15:51:24;39.30;45.30
33093;DHT22;19456;46.104;12.908;2023-09-08T15:53:49;38.90;45.30
33093;DHT22;19456;46.104;12.908;2023-09-08T15:56:15;38.60;45.70
33093;DHT22;19456;46.104;12.908;2023-09-08T15:58:41;38.50;45.60
33093;DHT22;19456;46.104;12.908;2023-09-08T16:01:07;38.60;46.20
33093;DHT22;19456;46.104;12.908;2023-09-08T16:03:33;37.10;47.00
33093;DHT22;19456;46.104;12.908;2023-09-08T16:06:00;36.20;48.50
33093;DHT22;19456;46.104;12.908;2023-09-08T16:08:26;35.20;49.90
33093;DHT22;19456;46.104;12.908;2023-09-08T16:10:52;34.50;51.70
33093;DHT22;19456;46.104;12.908;2023-09-08T16:13:18;33.70;52.90
33093;DHT22;19456;46.104;12.908;2023-09-08T16:15:45;33.40;53.60
33093;DHT22;19456;46.104;12.908;2023-09-08T16:18:11;32.90;54.20
33093;DHT22;19456;46.104;12.908;2023-09-08T16:20:37;32.20;54.70
33093;DHT22;19456;46.104;12.908;2023-09-08T16:23:06;32.00;56.80
33093;DHT22;19456;46.104;12.908;2023-09-08T16:25:32;31.50;57.00
33093;DHT22;19456;46.104;12.908;2023-09-08T16:27:58;31.10;58.30
33093;DHT22;19456;46.104;12.908;2023-09-08T16:30:25;31.00;58.20
33093;DHT22;19456;46.104;12.908;2023-09-08T16:32:51;30.80;58.90
33093;DHT22;19456;46.104;12.908;2023-09-08T16:35:17;30.70;59.50
33093;DHT22;19456;46.104;12.908;2023-09-08T16:37:44;30.40;59.60
33093;DHT22;19456;46.104;12.908;2023-09-08T16:40:10;30.20;60.40
33093;DHT22;19456;46.104;12.908;2023-09-08T16:42:36;30.00;60.80
33093;DHT22;19456;46.104;12.908;2023-09-08T16:45:02;29.90;62.30
33093;DHT22;19456;46.104;12.908;2023-09-08T16:47:29;29.70;63.20
33093;DHT22;19456;46.104;12.908;2023-09-08T16:49:55;29.50;63.80
33093;DHT22;19456;46.104;12.908;2023-09-08T16:52:23;29.30;65.10
33093;DHT22;19456;46.104;12.908;2023-09-08T16:54:49;29.20;65.80
33093;DHT22;19456;46.104;12.908;2023-09-08T16:57:15;29.30;65.70
33093;DHT22;19456;46.104;12.908;2023-09-08T16:59:42;29.20;66.60
33093;DHT22;19456;46.104;12.908;2023-09-08T17:02:08;29.10;66.90
33093;DHT22;19456;46.104;12.908;2023-09-08T17:04:33;29.10;67.70
33093;DHT22;19456;46.104;12.908;2023-09-08T17:07:01;29.00;68.50
33093;DHT22;19456;46.104;12.908;2023-09-08T17:09:26;28.80;69.40
33093;DHT22;19456;46.104;12.908;2023-09-08T17:11:53;28.60;70.00
33093;DHT22;19456;46.104;12.908;2023-09-08T17:14:18;28.50;71.40
33093;DHT22;19456;46.104;12.908;2023-09-08T17:16:44;28.20;72.00
33093;DHT22;19456;46.104;12.908;2023-09-08T17:19:09;28.00;72.30
33093;DHT22;19456;46.104;12.908;2023-09-08T17:21:35;27.90;72.60
33093;DHT22;19456;46.104;12.908;2023-09-08T17:24:01;27.70;73.10
33093;DHT22;19456;46.104;12.908;2023-09-08T17:26:27;27.50;73.70
33093;DHT22;19456;46.104;12.908;2023-09-08T17:28:53;27.30;74.60
33093;DHT22;19456;46.104;12.908;2023-09-08T17:31:18;27.20;75.30
33093;DHT22;19456;46.104;12.908;2023-09-08T17:33:44;27.10;76.40
33093;DHT22;19456;46.104;12.908;2023-09-08T17:36:10;27.00;77.80
33093;DHT22;19456;46.104;12.908;2023-09-08T17:38:35;26.90;78.30
33093;DHT22;19456;46.104;12.908;2023-09-08T17:41:01;26.80;79.10
33093;DHT22;19456;46.104;12.908;2023-09-08T17:43:27;26.70;79.40
33093;DHT22;19456;46.104;12.908;2023-09-08T17:45:53;26.60;80.80
33093;DHT22;19456;46.104;12.908;2023-09-08T17:48:19;26.50;82.60
33093;DHT22;19456;46.104;12.908;2023-09-08T17:50:44;26.40;84.60
33093;DHT22;19456;46.104;12.908;2023-09-08T17:53:10;26.20;84.40
33093;DHT22;19456;46.104;12.908;2023-09-08T17:55:35;26.20;85.30
33093;DHT22;19456;46.104;12.908;2023-09-08T17:58:01;26.20;86.30
33093;DHT22;19456;46.104;12.908;2023-09-08T18:00:27;26.20;86.30
33093;DHT22;19456;46.104;12.908;2023-09-08T18:02:52;26.00;88.30
33093;DHT22;19456;46.104;12.908;2023-09-08T18:05:18;25.80;90.30
33093;DHT22;19456;46.104;12.908;2023-09-08T18:07:43;25.40;91.20
33093;DHT22;19456;46.104;12.908;2023-09-08T18:10:10;25.20;91.60
33093;DHT22;19456;46.104;12.908;2023-09-08T18:12:38;25.10;91.40
33093;DHT22;19456;46.104;12.908;2023-09-08T18:15:04;25.10;91.60
33093;DHT22;19456;46.104;12.908;2023-09-08T18:17:29;25.00;91.80
33093;DHT22;19456;46.104;12.908;2023-09-08T18:19:57;25.00;92.00
33093;DHT22;19456;46.104;12.908;2023-09-08T18:22:23;25.00;92.40
33093;DHT22;19456;46.104;12.908;2023-09-08T18:24:51;24.90;93.10
33093;DHT22;19456;46.104;12.908;2023-09-08T18:27:17;24.60;94.40
33093;DHT22;19456;46.104;12.908;2023-09-08T18:29:42;24.50;95.40
33093;DHT22;19456;46.104;12.908;2023-09-08T18:32:08;24.40;96.70
33093;DHT22;19456;46.104;12.908;2023-09-08T18:34:33;24.30;97.10
33093;DHT22;19456;46.104;12.908;2023-09-08T18:36:59;24.30;97.80
33093;DHT22;19456;46.104;12.908;2023-09-08T18:39:25;24.20;98.90
33093;DHT22;19456;46.104;12.908;2023-09-08T18:41:50;24.20;99.00
33093;DHT22;19456;46.104;12.908;2023-09-08T18:44:16;24.10;99.90
33093;DHT22;19456;46.104;12.908;2023-09-08T18:46:41;24.20;99.90
33093;DHT22;19456;46.104;12.908;2023-09-08T18:49:07;24.00;99.90
33093;DHT22;19456;46.104;12.908;2023-09-08T18:51:33;23.90;99.90
33093;DHT22;19456;46.104;12.908;2023-09-08T18:53:59;23.80;99.90
33093;DHT22;19456;46.104;12.908;2023-09-08T18:56:24;23.80;99.90
33093;DHT22;19456;46.104;12.908;2023-09-08T18:58:50;23.90;99.90
33093;DHT22;19456;46.104;12.908;2023-09-08T19:01:15;23.80;99.90
33093;DHT22;19456;46.104;12.908;2023-09-08T19:03:41;23.50;99.90
33093;DHT22;19456;46.104;12.908;2023-09-08T19:06:08;23.50;99.90
33093;DHT22;19456;46.104;12.908;2023-09-08T19:08:36;23.50;99.90
33093;DHT22;19456;46.104;12.908;2023-09-08T19:11:02;23.40;99.90
33093;DHT22;19456;46.104;12.908;2023-09-08T19:13:28;23.30;99.90
33093;DHT22;19456;46.104;12.908;2023-09-08T19:15:53;23.20;99.90
33093;DHT22;19456;46.104;12.908;2023-09-08T19:18:19;23.20;99.90
33093;DHT22;19456;46.104;12.908;2023-09-08T19:20:45;22.90;99.90
33093;DHT22;19456;46.104;12.908;2023-09-08T19:23:10;22.40;99.90
33093;DHT22;19456;46.104;12.908;2023-09-08T19:25:37;22.30;99.90
33093;DHT22;19456;46.104;12.908;2023-09-08T19:28:03;22.30;99.90